sensor_id;sensor_type;location;lat;lon;timestamp;temperature;humidity
81524;DHT22;70954;49.500;10.416;2023-08-06T00:01:09;18.40;58.70
81524;DHT22;70954;49.500;10.416;2023-08-06T00:03:35;18.40;58.60
81524;DHT22;70954;49.500;10.416;2023-08-06T00:06:00;18.40;58.60
81524;DHT22;70954;49.500;10.416;2023-08-06T00:08:26;18.30;58.60
81524;DHT22;70954;49.500;10.416;2023-08-06T00:10:51;18.30;58.70
81524;DHT22;70954;49.500;10.416;2023-08-06T00:13:17;18.30;58.70
81524;DHT22;70954;49.500;10.416;2023-08-06T00:15:42;18.30;58.90
81524;DHT22;70954;49.500;10.416;2023-08-06T00:18:08;18.20;59.00
81524;DHT22;70954;49.500;10.416;2023-08-06T00:20:33;18.20;59.20
81524;DHT22;70954;49.500;10.416;2023-08-06T00:22:59;18.10;59.40
81524;DHT22;70954;49.500;10.416;2023-08-06T00:25:24;18.10;59.40
81524;DHT22;70954;49.500;10.416;2023-08-06T00:27:50;18.00;59.40
81524;DHT22;70954;49.500;10.416;2023-08-06T00:30:15;18.00;59.50
81524;DHT22;70954;49.500;10.416;2023-08-06T00:32:41;18.00;59.60
81524;DHT22;70954;49.500;10.416;2023-08-06T00:35:06;18.00;59.70
81524;DHT22;70954;49.500;10.416;2023-08-06T00:37:32;17.90;59.90
81524;DHT22;70954;49.500;10.416;2023-08-06T00:39:57;17.80;60.20
81524;DHT22;70954;49.500;10.416;2023-08-06T00:42:23;17.80;60.30
81524;DHT22;70954;49.500;10.416;2023-08-06T00:44:48;17.80;60.50
81524;DHT22;70954;49.500;10.416;2023-08-06T00:47:14;17.80;60.70
81524;DHT22;70954;49.500;10.416;2023-08-06T00:49:40;17.80;60.90
81524;DHT22;70954;49.500;10.416;2023-08-06T00:52:07;17.80;61.10
81524;DHT22;70954;49.500;10.416;2023-08-06T00:54:34;17.80;61.20
81524;DHT22;70954;49.500;10.416;2023-08-06T00:57:01;17.70;61.30
81524;DHT22;70954;49.500;10.416;2023-08-06T00:59:27;17.70;61.40
81524;DHT22;70954;49.500;10.416;2023-08-06T01:01:53;17.70;61.50
81524;DHT22;70954;49.500;10.416;2023-08-06T01:04:19;17.70;61.60
81524;DHT22;70954;49.500;10.416;2023-08-06T01:06:48;17.70;61.80
81524;DHT22;70954;49.500;10.416;2023-08-06T01:12:06;17.70;62.10
81524;DHT22;70954;49.500;10.416;2023-08-06T01:15:04;17.60;62.20
81524;DHT22;70954;49.500;10.416;2023-08-06T01:17:32;17.60;62.70
81524;DHT22;70954;49.500;10.416;2023-08-06T01:19:57;17.60;62.30
81524;DHT22;70954;49.500;10.416;2023-08-06T01:22:23;17.60;62.40
81524;DHT22;70954;49.500;10.416;2023-08-06T01:24:50;17.60;62.50
81524;DHT22;70954;49.500;10.416;2023-08-06T01:27:29;17.60;62.60
81524;DHT22;70954;49.500;10.416;2023-08-06T01:30:20;17.60;63.20
81524;DHT22;70954;49.500;10.416;2023-08-06T01:32:50;17.60;63.40
81524;DHT22;70954;49.500;10.416;2023-08-06T01:35:18;17.60;62.60
81524;DHT22;70954;49.500;10.416;2023-08-06T01:37:45;17.60;62.50
81524;DHT22;70954;49.500;10.416;2023-08-06T01:40:12;17.60;62.60
81524;DHT22;70954;49.500;10.416;2023-08-06T01:42:39;17.60;62.70
81524;DHT22;70954;49.500;10.416;2023-08-06T01:45:08;17.50;62.70
81524;DHT22;70954;49.500;10.416;2023-08-06T01:47:34;17.50;62.90
81524;DHT22;70954;49.500;10.416;2023-08-06T01:49:59;17.50;63.10
81524;DHT22;70954;49.500;10.416;2023-08-06T01:52:25;17.50;63.20
81524;DHT22;70954;49.500;10.416;2023-08-06T01:54:50;17.50;63.20
81524;DHT22;70954;49.500;10.416;2023-08-06T01:57:16;17.50;63.30
81524;DHT22;70954;49.500;10.416;2023-08-06T01:59:41;17.50;63.40
81524;DHT22;70954;49.500;10.416;2023-08-06T02:02:07;17.50;63.50
81524;DHT22;70954;49.500;10.416;2023-08-06T02:04:32;17.50;63.60
81524;DHT22;70954;49.500;10.416;2023-08-06T02:06:58;17.50;63.60
81524;DHT22;70954;49.500;10.416;2023-08-06T02:09:23;17.50;63.60
81524;DHT22;70954;49.500;10.416;2023-08-06T02:11:49;17.50;63.60
81524;DHT22;70954;49.500;10.416;2023-08-06T02:14:14;17.50;63.50
81524;DHT22;70954;49.500;10.416;2023-08-06T02:16:40;17.50;63.40
81524;DHT22;70954;49.500;10.416;2023-08-06T02:19:05;17.50;63.50
81524;DHT22;70954;49.500;10.416;2023-08-06T02:21:30;17.40;63.50
81524;DHT22;70954;49.500;10.416;2023-08-06T02:23:56;17.40;63.60
81524;DHT22;70954;49.500;10.416;2023-08-06T02:26:21;17.40;63.70
81524;DHT22;70954;49.500;10.416;2023-08-06T02:28:47;17.40;63.70
81524;DHT22;70954;49.500;10.416;2023-08-06T02:31:12;17.30;63.70
81524;DHT22;70954;49.500;10.416;2023-08-06T02:33:38;17.30;63.70
81524;DHT22;70954;49.500;10.416;2023-08-06T02:36:04;17.30;63.70
81524;DHT22;70954;49.500;10.416;2023-08-06T02:38:30;17.20;63.70
81524;DHT22;70954;49.500;10.416;2023-08-06T02:40:55;17.20;63.70
81524;DHT22;70954;49.500;10.416;2023-08-06T02:43:21;17.20;63.80
81524;DHT22;70954;49.500;10.416;2023-08-06T02:45:46;17.20;63.80
81524;DHT22;70954;49.500;10.416;2023-08-06T02:48:12;17.20;63.70
81524;DHT22;70954;49.500;10.416;2023-08-06T02:50:41;17.20;63.70
81524;DHT22;70954;49.500;10.416;2023-08-06T02:53:07;17.10;63.80
81524;DHT22;70954;49.500;10.416;2023-08-06T02:55:33;17.00;63.90
81524;DHT22;70954;49.500;10.416;2023-08-06T02:57:59;17.00;64.00
81524;DHT22;70954;49.500;10.416;2023-08-06T03:00:25;17.00;64.00
81524;DHT22;70954;49.500;10.416;2023-08-06T03:02:50;17.00;64.00
81524;DHT22;70954;49.500;10.416;2023-08-06T03:05:16;17.00;64.00
81524;DHT22;70954;49.500;10.416;2023-08-06T03:07:41;17.00;64.10
81524;DHT22;70954;49.500;10.416;2023-08-06T03:10:07;16.90;64.20
81524;DHT22;70954;49.500;10.416;2023-08-06T03:12:32;16.90;64.20
81524;DHT22;70954;49.500;10.416;2023-08-06T03:14:58;16.90;64.20
81524;DHT22;70954;49.500;10.416;2023-08-06T03:17:23;16.90;64.20
81524;DHT22;70954;49.500;10.416;2023-08-06T03:19:48;16.80;64.10
81524;DHT22;70954;49.500;10.416;2023-08-06T03:22:14;16.80;64.20
81524;DHT22;70954;49.500;10.416;2023-08-06T03:24:39;16.80;64.30
81524;DHT22;70954;49.500;10.416;2023-08-06T03:27:05;16.80;64.30
81524;DHT22;70954;49.500;10.416;2023-08-06T03:29:31;16.70;64.40
81524;DHT22;70954;49.500;10.416;2023-08-06T03:31:56;16.70;64.40
81524;DHT22;70954;49.500;10.416;2023-08-06T03:34:22;16.70;64.40
81524;DHT22;70954;49.500;10.416;2023-08-06T03:36:47;16.60;64.40
81524;DHT22;70954;49.500;10.416;2023-08-06T03:39:12;16.60;64.50
81524;DHT22;70954;49.500;10.416;2023-08-06T03:41:38;16.60;64.50
81524;DHT22;70954;49.500;10.416;2023-08-06T03:44:03;16.60;64.50
81524;DHT22;70954;49.500;10.416;2023-08-06T03:46:29;16.50;64.50
81524;DHT22;70954;49.500;10.416;2023-08-06T03:48:55;16.50;64.60
81524;DHT22;70954;49.500;10.416;2023-08-06T03:51:20;16.50;64.60
81524;DHT22;70954;49.500;10.416;2023-08-06T03:53:45;16.40;64.70
81524;DHT22;70954;49.500;10.416;2023-08-06T03:56:11;16.40;64.80
81524;DHT22;70954;49.500;10.416;2023-08-06T03:58:36;16.40;64.80
81524;DHT22;70954;49.500;10.416;2023-08-06T04:01:03;16.40;64.90
81524;DHT22;70954;49.500;10.416;2023-08-06T04:03:29;16.40;64.90
81524;DHT22;70954;49.500;10.416;2023-08-06T04:05:54;16.40;65.00
81524;DHT22;70954;49.500;10.416;2023-08-06T04:08:20;16.30;65.10
81524;DHT22;70954;49.500;10.416;2023-08-06T04:10:45;16.30;65.20
81524;DHT22;70954;49.500;10.416;2023-08-06T04:13:14;16.20;65.40
81524;DHT22;70954;49.500;10.416;2023-08-06T04:15:39;16.20;65.50
81524;DHT22;70954;49.500;10.416;2023-08-06T04:18:05;16.20;65.60
81524;DHT22;70954;49.500;10.416;2023-08-06T04:20:30;16.20;65.70
81524;DHT22;70954;49.500;10.416;2023-08-06T04:22:56;16.20;65.70
81524;DHT22;70954;49.500;10.416;2023-08-06T04:25:21;16.20;65.80
81524;DHT22;70954;49.500;10.416;2023-08-06T04:27:47;16.20;65.80
81524;DHT22;70954;49.500;10.416;2023-08-06T04:30:13;16.20;65.90
81524;DHT22;70954;49.500;10.416;2023-08-06T04:32:40;16.30;65.90
81524;DHT22;70954;49.500;10.416;2023-08-06T04:35:05;16.30;66.00
81524;DHT22;70954;49.500;10.416;2023-08-06T04:37:31;16.30;66.00
81524;DHT22;70954;49.500;10.416;2023-08-06T04:39:57;16.30;66.00
81524;DHT22;70954;49.500;10.416;2023-08-06T04:42:22;16.30;66.00
81524;DHT22;70954;49.500;10.416;2023-08-06T04:44:48;16.30;66.00
81524;DHT22;70954;49.500;10.416;2023-08-06T04:47:13;16.30;66.10
81524;DHT22;70954;49.500;10.416;2023-08-06T04:49:38;16.30;66.10
81524;DHT22;70954;49.500;10.416;2023-08-06T04:52:04;16.30;66.30
81524;DHT22;70954;49.500;10.416;2023-08-06T04:54:30;16.30;66.40
81524;DHT22;70954;49.500;10.416;2023-08-06T04:56:55;16.40;66.50
81524;DHT22;70954;49.500;10.416;2023-08-06T04:59:21;16.40;66.60
81524;DHT22;70954;49.500;10.416;2023-08-06T05:01:46;16.40;66.60
81524;DHT22;70954;49.500;10.416;2023-08-06T05:04:12;16.40;66.70
81524;DHT22;70954;49.500;10.416;2023-08-06T05:06:37;16.40;66.80
81524;DHT22;70954;49.500;10.416;2023-08-06T05:09:03;16.40;66.80
81524;DHT22;70954;49.500;10.416;2023-08-06T05:11:28;16.50;67.00
81524;DHT22;70954;49.500;10.416;2023-08-06T05:13:54;16.50;67.10
81524;DHT22;70954;49.500;10.416;2023-08-06T05:16:19;16.50;67.30
81524;DHT22;70954;49.500;10.416;2023-08-06T05:18:44;16.60;67.40
81524;DHT22;70954;49.500;10.416;2023-08-06T05:21:10;16.60;67.50
81524;DHT22;70954;49.500;10.416;2023-08-06T05:23:35;16.70;67.70
81524;DHT22;70954;49.500;10.416;2023-08-06T05:26:01;16.70;67.70
81524;DHT22;70954;49.500;10.416;2023-08-06T05:28:26;16.80;67.70
81524;DHT22;70954;49.500;10.416;2023-08-06T05:30:52;16.90;67.70
81524;DHT22;70954;49.500;10.416;2023-08-06T05:33:17;16.90;67.80
81524;DHT22;70954;49.500;10.416;2023-08-06T05:35:43;17.00;67.80
81524;DHT22;70954;49.500;10.416;2023-08-06T05:38:08;17.00;67.70
81524;DHT22;70954;49.500;10.416;2023-08-06T05:40:34;17.00;67.60
81524;DHT22;70954;49.500;10.416;2023-08-06T05:42:59;17.20;67.60
81524;DHT22;70954;49.500;10.416;2023-08-06T05:45:25;17.20;67.50
81524;DHT22;70954;49.500;10.416;2023-08-06T05:47:50;17.20;67.50
81524;DHT22;70954;49.500;10.416;2023-08-06T05:50:17;17.30;67.50
81524;DHT22;70954;49.500;10.416;2023-08-06T05:52:42;17.40;67.40
81524;DHT22;70954;49.500;10.416;2023-08-06T05:55:08;17.40;67.30
81524;DHT22;70954;49.500;10.416;2023-08-06T05:57:33;17.50;67.30
81524;DHT22;70954;49.500;10.416;2023-08-06T05:59:59;17.50;67.30
81524;DHT22;70954;49.500;10.416;2023-08-06T06:02:24;17.50;67.10
81524;DHT22;70954;49.500;10.416;2023-08-06T06:04:50;17.50;67.20
81524;DHT22;70954;49.500;10.416;2023-08-06T06:07:15;17.60;67.00
81524;DHT22;70954;49.500;10.416;2023-08-06T06:09:41;17.60;66.90
81524;DHT22;70954;49.500;10.416;2023-08-06T06:12:07;17.60;67.00
81524;DHT22;70954;49.500;10.416;2023-08-06T06:14:32;17.70;67.00
81524;DHT22;70954;49.500;10.416;2023-08-06T06:16:59;17.70;66.90
81524;DHT22;70954;49.500;10.416;2023-08-06T06:19:24;17.80;66.80
81524;DHT22;70954;49.500;10.416;2023-08-06T06:21:50;17.80;66.70
81524;DHT22;70954;49.500;10.416;2023-08-06T06:24:15;17.80;66.60
81524;DHT22;70954;49.500;10.416;2023-08-06T06:26:41;17.80;66.50
81524;DHT22;70954;49.500;10.416;2023-08-06T06:29:06;17.80;66.60
81524;DHT22;70954;49.500;10.416;2023-08-06T06:31:32;17.90;66.90
81524;DHT22;70954;49.500;10.416;2023-08-06T06:33:57;18.00;67.00
81524;DHT22;70954;49.500;10.416;2023-08-06T06:36:23;18.00;67.20
81524;DHT22;70954;49.500;10.416;2023-08-06T06:38:48;18.00;67.10
81524;DHT22;70954;49.500;10.416;2023-08-06T06:41:13;18.10;67.00
81524;DHT22;70954;49.500;10.416;2023-08-06T06:43:39;18.20;66.70
81524;DHT22;70954;49.500;10.416;2023-08-06T06:46:04;18.20;66.50
81524;DHT22;70954;49.500;10.416;2023-08-06T06:48:32;18.20;66.40
81524;DHT22;70954;49.500;10.416;2023-08-06T06:50:58;18.20;66.50
81524;DHT22;70954;49.500;10.416;2023-08-06T06:53:24;18.30;66.60
81524;DHT22;70954;49.500;10.416;2023-08-06T06:55:49;18.30;66.60
81524;DHT22;70954;49.500;10.416;2023-08-06T06:58:15;18.40;66.40
81524;DHT22;70954;49.500;10.416;2023-08-06T07:00:41;18.40;66.10
81524;DHT22;70954;49.500;10.416;2023-08-06T07:03:06;18.50;65.50
81524;DHT22;70954;49.500;10.416;2023-08-06T07:05:32;18.50;65.10
81524;DHT22;70954;49.500;10.416;2023-08-06T07:07:58;18.50;64.50
81524;DHT22;70954;49.500;10.416;2023-08-06T07:10:23;18.50;64.20
81524;DHT22;70954;49.500;10.416;2023-08-06T07:12:48;18.40;63.40
81524;DHT22;70954;49.500;10.416;2023-08-06T07:15:14;18.40;63.50
81524;DHT22;70954;49.500;10.416;2023-08-06T07:17:39;18.30;63.10
81524;DHT22;70954;49.500;10.416;2023-08-06T07:20:07;18.30;63.00
81524;DHT22;70954;49.500;10.416;2023-08-06T07:22:32;18.20;63.00
81524;DHT22;70954;49.500;10.416;2023-08-06T07:24:58;18.20;63.10
81524;DHT22;70954;49.500;10.416;2023-08-06T07:27:24;18.10;63.20
81524;DHT22;70954;49.500;10.416;2023-08-06T07:29:50;18.00;63.40
81524;DHT22;70954;49.500;10.416;2023-08-06T07:32:15;18.00;63.50
81524;DHT22;70954;49.500;10.416;2023-08-06T07:34:41;18.00;63.70
81524;DHT22;70954;49.500;10.416;2023-08-06T07:37:06;18.00;63.80
81524;DHT22;70954;49.500;10.416;2023-08-06T07:39:31;17.90;64.00
81524;DHT22;70954;49.500;10.416;2023-08-06T07:41:57;17.80;64.00
81524;DHT22;70954;49.500;10.416;2023-08-06T07:44:22;17.80;64.30
81524;DHT22;70954;49.500;10.416;2023-08-06T07:46:48;17.80;64.30
81524;DHT22;70954;49.500;10.416;2023-08-06T07:49:13;17.70;64.20
81524;DHT22;70954;49.500;10.416;2023-08-06T07:51:39;17.60;64.20
81524;DHT22;70954;49.500;10.416;2023-08-06T07:54:05;17.50;64.40
81524;DHT22;70954;49.500;10.416;2023-08-06T07:56:30;17.50;64.90
81524;DHT22;70954;49.500;10.416;2023-08-06T07:58:56;17.40;65.30
81524;DHT22;70954;49.500;10.416;2023-08-06T08:01:21;17.40;65.60
81524;DHT22;70954;49.500;10.416;2023-08-06T08:03:47;17.40;65.80
81524;DHT22;70954;49.500;10.416;2023-08-06T08:06:12;17.40;65.80
81524;DHT22;70954;49.500;10.416;2023-08-06T08:08:38;17.30;66.00
81524;DHT22;70954;49.500;10.416;2023-08-06T08:11:03;17.30;66.10
81524;DHT22;70954;49.500;10.416;2023-08-06T08:13:29;17.30;66.20
81524;DHT22;70954;49.500;10.416;2023-08-06T08:15:58;17.30;66.50
81524;DHT22;70954;49.500;10.416;2023-08-06T08:18:23;17.40;66.80
81524;DHT22;70954;49.500;10.416;2023-08-06T08:20:49;17.40;67.20
81524;DHT22;70954;49.500;10.416;2023-08-06T08:23:14;17.50;67.00
81524;DHT22;70954;49.500;10.416;2023-08-06T08:25:40;17.50;67.10
81524;DHT22;70954;49.500;10.416;2023-08-06T08:28:05;17.60;66.90
81524;DHT22;70954;49.500;10.416;2023-08-06T08:30:31;17.60;66.70
81524;DHT22;70954;49.500;10.416;2023-08-06T08:32:56;17.60;66.30
81524;DHT22;70954;49.500;10.416;2023-08-06T08:35:22;17.70;66.10
81524;DHT22;70954;49.500;10.416;2023-08-06T08:37:47;17.70;65.90
81524;DHT22;70954;49.500;10.416;2023-08-06T08:40:14;17.70;66.00
81524;DHT22;70954;49.500;10.416;2023-08-06T08:42:40;17.70;66.10
81524;DHT22;70954;49.500;10.416;2023-08-06T08:45:11;17.70;66.30
81524;DHT22;70954;49.500;10.416;2023-08-06T08:47:38;17.70;66.40
81524;DHT22;70954;49.500;10.416;2023-08-06T08:50:05;17.70;66.20
81524;DHT22;70954;49.500;10.416;2023-08-06T08:52:32;17.70;66.10
81524;DHT22;70954;49.500;10.416;2023-08-06T08:54:59;17.70;66.10
81524;DHT22;70954;49.500;10.416;2023-08-06T08:57:26;17.80;66.10
81524;DHT22;70954;49.500;10.416;2023-08-06T08:59:51;17.80;66.00
81524;DHT22;70954;49.500;10.416;2023-08-06T09:02:17;17.70;66.00
81524;DHT22;70954;49.500;10.416;2023-08-06T09:04:44;17.70;66.10
81524;DHT22;70954;49.500;10.416;2023-08-06T09:07:11;17.70;66.10
81524;DHT22;70954;49.500;10.416;2023-08-06T09:09:39;17.80;66.10
81524;DHT22;70954;49.500;10.416;2023-08-06T09:12:14;17.80;66.20
81524;DHT22;70954;49.500;10.416;2023-08-06T09:14:40;17.80;66.30
81524;DHT22;70954;49.500;10.416;2023-08-06T09:17:05;17.80;66.80
81524;DHT22;70954;49.500;10.416;2023-08-06T09:19:31;17.80;67.00
81524;DHT22;70954;49.500;10.416;2023-08-06T09:21:56;17.80;66.70
81524;DHT22;70954;49.500;10.416;2023-08-06T09:24:22;18.00;66.70
81524;DHT22;70954;49.500;10.416;2023-08-06T09:26:47;18.00;66.70
81524;DHT22;70954;49.500;10.416;2023-08-06T09:29:13;18.00;66.60
81524;DHT22;70954;49.500;10.416;2023-08-06T09:31:47;18.10;66.20
81524;DHT22;70954;49.500;10.416;2023-08-06T09:34:17;18.20;65.80
81524;DHT22;70954;49.500;10.416;2023-08-06T09:36:47;18.20;65.70
81524;DHT22;70954;49.500;10.416;2023-08-06T09:39:14;18.30;65.80
81524;DHT22;70954;49.500;10.416;2023-08-06T09:41:39;18.30;66.20
81524;DHT22;70954;49.500;10.416;2023-08-06T09:44:05;18.40;66.30
81524;DHT22;70954;49.500;10.416;2023-08-06T09:46:32;18.50;65.80
81524;DHT22;70954;49.500;10.416;2023-08-06T09:48:57;18.60;65.10
81524;DHT22;70954;49.500;10.416;2023-08-06T09:51:23;18.60;64.90
81524;DHT22;70954;49.500;10.416;2023-08-06T09:53:48;18.70;64.90
81524;DHT22;70954;49.500;10.416;2023-08-06T09:56:15;18.80;64.80
81524;DHT22;70954;49.500;10.416;2023-08-06T09:58:42;18.90;64.70
81524;DHT22;70954;49.500;10.416;2023-08-06T10:01:11;18.90;64.00
81524;DHT22;70954;49.500;10.416;2023-08-06T10:03:37;19.00;63.70
81524;DHT22;70954;49.500;10.416;2023-08-06T10:06:04;19.00;63.40
81524;DHT22;70954;49.500;10.416;2023-08-06T10:08:30;19.00;63.10
81524;DHT22;70954;49.500;10.416;2023-08-06T10:10:55;19.10;63.20
81524;DHT22;70954;49.500;10.416;2023-08-06T10:13:21;19.10;63.00
81524;DHT22;70954;49.500;10.416;2023-08-06T10:15:48;19.10;62.70
81524;DHT22;70954;49.500;10.416;2023-08-06T10:18:15;19.10;62.50
81524;DHT22;70954;49.500;10.416;2023-08-06T10:20:42;19.10;62.60
81524;DHT22;70954;49.500;10.416;2023-08-06T10:23:07;19.20;62.60
81524;DHT22;70954;49.500;10.416;2023-08-06T10:25:34;19.20;62.50
81524;DHT22;70954;49.500;10.416;2023-08-06T10:27:59;19.30;62.60
81524;DHT22;70954;49.500;10.416;2023-08-06T10:30:29;19.30;62.70
81524;DHT22;70954;49.500;10.416;2023-08-06T10:32:58;19.30;62.40
81524;DHT22;70954;49.500;10.416;2023-08-06T10:37:53;19.40;62.70
81524;DHT22;70954;49.500;10.416;2023-08-06T10:40:21;19.50;62.80
81524;DHT22;70954;49.500;10.416;2023-08-06T10:42:46;19.50;62.10
81524;DHT22;70954;49.500;10.416;2023-08-06T10:45:12;19.60;61.80
81524;DHT22;70954;49.500;10.416;2023-08-06T10:47:39;19.70;61.20
81524;DHT22;70954;49.500;10.416;2023-08-06T10:50:05;19.70;61.10
81524;DHT22;70954;49.500;10.416;2023-08-06T10:52:31;19.70;61.20
81524;DHT22;70954;49.500;10.416;2023-08-06T10:54:56;19.70;60.70
81524;DHT22;70954;49.500;10.416;2023-08-06T10:57:22;19.70;60.90
81524;DHT22;70954;49.500;10.416;2023-08-06T10:59:47;19.70;61.10
81524;DHT22;70954;49.500;10.416;2023-08-06T11:02:13;19.70;61.40
81524;DHT22;70954;49.500;10.416;2023-08-06T11:04:38;19.70;60.80
81524;DHT22;70954;49.500;10.416;2023-08-06T11:07:07;19.70;60.80
81524;DHT22;70954;49.500;10.416;2023-08-06T11:09:32;19.70;60.40
81524;DHT22;70954;49.500;10.416;2023-08-06T11:11:58;19.70;60.40
81524;DHT22;70954;49.500;10.416;2023-08-06T11:14:23;19.70;60.70
81524;DHT22;70954;49.500;10.416;2023-08-06T11:16:50;19.70;60.50
81524;DHT22;70954;49.500;10.416;2023-08-06T11:19:16;19.70;60.20
81524;DHT22;70954;49.500;10.416;2023-08-06T11:21:42;19.80;60.50
81524;DHT22;70954;49.500;10.416;2023-08-06T11:24:08;19.80;60.00
81524;DHT22;70954;49.500;10.416;2023-08-06T11:26:36;19.80;60.20
81524;DHT22;70954;49.500;10.416;2023-08-06T11:29:03;19.90;60.50
81524;DHT22;70954;49.500;10.416;2023-08-06T11:31:28;19.80;60.50
81524;DHT22;70954;49.500;10.416;2023-08-06T11:33:54;19.80;60.50
81524;DHT22;70954;49.500;10.416;2023-08-06T11:36:33;19.70;60.80
81524;DHT22;70954;49.500;10.416;2023-08-06T11:39:03;19.70;61.00
81524;DHT22;70954;49.500;10.416;2023-08-06T11:41:29;19.70;61.10
81524;DHT22;70954;49.500;10.416;2023-08-06T11:43:54;19.60;61.20
81524;DHT22;70954;49.500;10.416;2023-08-06T11:46:20;19.50;61.30
81524;DHT22;70954;49.500;10.416;2023-08-06T11:48:54;19.50;61.70
81524;DHT22;70954;49.500;10.416;2023-08-06T11:51:23;19.50;61.80
81524;DHT22;70954;49.500;10.416;2023-08-06T11:53:48;19.50;61.90
81524;DHT22;70954;49.500;10.416;2023-08-06T11:56:14;19.40;61.60
81524;DHT22;70954;49.500;10.416;2023-08-06T11:58:41;19.50;61.70
81524;DHT22;70954;49.500;10.416;2023-08-06T12:01:07;19.50;61.60
81524;DHT22;70954;49.500;10.416;2023-08-06T12:03:32;19.50;61.00
81524;DHT22;70954;49.500;10.416;2023-08-06T12:05:58;19.60;61.00
81524;DHT22;70954;49.500;10.416;2023-08-06T12:08:26;19.70;60.90
81524;DHT22;70954;49.500;10.416;2023-08-06T12:10:52;19.70;60.10
81524;DHT22;70954;49.500;10.416;2023-08-06T12:13:17;19.70;59.70
81524;DHT22;70954;49.500;10.416;2023-08-06T12:15:43;19.70;59.80
81524;DHT22;70954;49.500;10.416;2023-08-06T12:18:08;19.70;59.60
81524;DHT22;70954;49.500;10.416;2023-08-06T12:20:34;19.80;59.60
81524;DHT22;70954;49.500;10.416;2023-08-06T12:22:59;19.70;59.60
81524;DHT22;70954;49.500;10.416;2023-08-06T12:25:25;19.80;59.40
81524;DHT22;70954;49.500;10.416;2023-08-06T12:27:50;19.70;59.60
81524;DHT22;70954;49.500;10.416;2023-08-06T12:30:16;19.70;59.90
81524;DHT22;70954;49.500;10.416;2023-08-06T12:32:41;19.70;59.50
81524;DHT22;70954;49.500;10.416;2023-08-06T12:35:07;19.70;59.60
81524;DHT22;70954;49.500;10.416;2023-08-06T12:37:33;19.70;59.80
81524;DHT22;70954;49.500;10.416;2023-08-06T12:39:59;19.60;60.50
81524;DHT22;70954;49.500;10.416;2023-08-06T12:42:24;19.50;60.70
81524;DHT22;70954;49.500;10.416;2023-08-06T12:44:50;19.50;60.70
81524;DHT22;70954;49.500;10.416;2023-08-06T12:47:16;19.50;60.60
81524;DHT22;70954;49.500;10.416;2023-08-06T12:49:42;19.40;60.70
81524;DHT22;70954;49.500;10.416;2023-08-06T12:52:07;19.40;60.70
81524;DHT22;70954;49.500;10.416;2023-08-06T12:54:33;19.30;60.70
81524;DHT22;70954;49.500;10.416;2023-08-06T12:56:58;19.30;60.90
81524;DHT22;70954;49.500;10.416;2023-08-06T12:59:23;19.30;61.00
81524;DHT22;70954;49.500;10.416;2023-08-06T13:01:49;19.20;61.00
81524;DHT22;70954;49.500;10.416;2023-08-06T13:04:14;19.20;61.20
81524;DHT22;70954;49.500;10.416;2023-08-06T13:06:40;19.20;61.00
81524;DHT22;70954;49.500;10.416;2023-08-06T13:09:08;19.10;61.30
81524;DHT22;70954;49.500;10.416;2023-08-06T13:11:34;19.00;61.30
81524;DHT22;70954;49.500;10.416;2023-08-06T13:14:07;19.00;61.70
81524;DHT22;70954;49.500;10.416;2023-08-06T13:16:33;18.90;62.10
81524;DHT22;70954;49.500;10.416;2023-08-06T13:18:58;18.80;61.80
81524;DHT22;70954;49.500;10.416;2023-08-06T13:21:24;18.80;62.20
81524;DHT22;70954;49.500;10.416;2023-08-06T13:23:49;18.70;62.40
81524;DHT22;70954;49.500;10.416;2023-08-06T13:26:15;18.60;62.60
81524;DHT22;70954;49.500;10.416;2023-08-06T13:28:40;18.50;62.70
81524;DHT22;70954;49.500;10.416;2023-08-06T13:31:06;18.40;63.10
81524;DHT22;70954;49.500;10.416;2023-08-06T13:33:31;18.40;63.40
81524;DHT22;70954;49.500;10.416;2023-08-06T13:35:57;18.30;64.00
81524;DHT22;70954;49.500;10.416;2023-08-06T13:38:22;18.20;64.00
81524;DHT22;70954;49.500;10.416;2023-08-06T13:40:48;18.20;64.20
81524;DHT22;70954;49.500;10.416;2023-08-06T13:43:13;18.10;64.30
81524;DHT22;70954;49.500;10.416;2023-08-06T13:45:39;18.00;64.30
81524;DHT22;70954;49.500;10.416;2023-08-06T13:48:04;18.00;64.20
81524;DHT22;70954;49.500;10.416;2023-08-06T13:50:29;17.90;64.40
81524;DHT22;70954;49.500;10.416;2023-08-06T13:52:55;17.80;64.70
81524;DHT22;70954;49.500;10.416;2023-08-06T13:55:21;17.80;65.00
81524;DHT22;70954;49.500;10.416;2023-08-06T13:57:46;17.80;65.20
81524;DHT22;70954;49.500;10.416;2023-08-06T14:00:12;17.80;65.60
81524;DHT22;70954;49.500;10.416;2023-08-06T14:02:38;17.70;65.50
81524;DHT22;70954;49.500;10.416;2023-08-06T14:05:03;17.70;65.60
81524;DHT22;70954;49.500;10.416;2023-08-06T14:07:29;17.70;65.40
81524;DHT22;70954;49.500;10.416;2023-08-06T14:09:54;17.60;65.90
81524;DHT22;70954;49.500;10.416;2023-08-06T14:12:20;17.60;65.70
81524;DHT22;70954;49.500;10.416;2023-08-06T14:14:45;17.60;65.90
81524;DHT22;70954;49.500;10.416;2023-08-06T14:17:11;17.60;65.90
81524;DHT22;70954;49.500;10.416;2023-08-06T14:19:36;17.50;65.60
81524;DHT22;70954;49.500;10.416;2023-08-06T14:22:02;17.50;65.70
81524;DHT22;70954;49.500;10.416;2023-08-06T14:24:27;17.50;65.80
81524;DHT22;70954;49.500;10.416;2023-08-06T14:26:53;17.40;66.10
81524;DHT22;70954;49.500;10.416;2023-08-06T14:29:18;17.40;66.20
81524;DHT22;70954;49.500;10.416;2023-08-06T14:31:44;17.40;66.20
81524;DHT22;70954;49.500;10.416;2023-08-06T14:34:09;17.40;66.20
81524;DHT22;70954;49.500;10.416;2023-08-06T14:36:35;17.40;66.40
81524;DHT22;70954;49.500;10.416;2023-08-06T14:39:00;17.40;66.50
81524;DHT22;70954;49.500;10.416;2023-08-06T14:41:26;17.40;66.50
81524;DHT22;70954;49.500;10.416;2023-08-06T14:43:51;17.40;66.20
81524;DHT22;70954;49.500;10.416;2023-08-06T14:46:17;17.40;66.00
81524;DHT22;70954;49.500;10.416;2023-08-06T14:48:42;17.40;66.00
81524;DHT22;70954;49.500;10.416;2023-08-06T14:51:08;17.40;65.90
81524;DHT22;70954;49.500;10.416;2023-08-06T14:53:34;17.40;65.80
81524;DHT22;70954;49.500;10.416;2023-08-06T14:55:59;17.50;65.60
81524;DHT22;70954;49.500;10.416;2023-08-06T14:58:25;17.50;65.50
81524;DHT22;70954;49.500;10.416;2023-08-06T15:00:50;17.50;65.50
81524;DHT22;70954;49.500;10.416;2023-08-06T15:03:15;17.50;65.30
81524;DHT22;70954;49.500;10.416;2023-08-06T15:05:43;17.50;65.00
81524;DHT22;70954;49.500;10.416;2023-08-06T15:08:09;17.50;64.90
81524;DHT22;70954;49.500;10.416;2023-08-06T15:10:34;17.50;64.50
81524;DHT22;70954;49.500;10.416;2023-08-06T15:13:00;17.50;64.60